Pink Coral — 9HPY9 — position and weather

sailwx.info

Track history (hours):
 
Tides and Currents Weather Stations Pressure Air Temp Water Temp Dewpoint Dewpoint Depression Visibility Wind Speed Wind Dir Waves Ship Positions

Pink Coral

Last reported at 2016-Feb-08 00:32 UTC. Time now 2016-Feb-08 02:03 UTC.
Position N 39°21' W 024°51'.

Length 183 m; draft 8.6 m.

Type: Tanker. MMSI: 249344000.

Date/timePositionNaut miles runAvg speedWind from/ knotsBaromVisibWave heightAir tempDewpointWater temp
2016-Feb-08 00:32N 39°21' W 024°51'3712.2
2016-Feb-07 21:33N 39°21' W 025°38'3712.3
2016-Feb-07 18:33N 39°21' W 026°25'2412.0
2016-Feb-07 16:31N 39°21' W 026°57'1212.3
2016-Feb-07 15:33N 39°21' W 027°13'1212.4
2016-Feb-07 14:34N 39°21' W 027°28'1312.7
2016-Feb-07 13:34N 39°21' W 027°45'1312.8
2016-Feb-07 12:34N 39°21' W 028°01'1312.5
2016-Feb-07 11:33N 39°20' W 028°18'1212.5
2016-Feb-07 10:33N 39°19' W 028°34'1212.1
2016-Feb-07 09:33N 39°18' W 028°49'1212.2
2016-Feb-07 08:34N 39°17' W 029°05'1212.0
2016-Feb-07 07:33N 39°16' W 029°21'1212.1
2016-Feb-07 06:34N 39°15' W 029°36'1212.2
2016-Feb-07 05:33N 39°14' W 029°52'1212.3
2016-Feb-07 04:34N 39°13' W 030°07'1312.6
2016-Feb-07 03:33N 39°12' W 030°24'1212.1
2016-Feb-07 02:33N 39°11' W 030°39'1212.4
2016-Feb-07 01:33N 39°10' W 030°55'1412.9
2016-Feb-07 00:31N 39°08' W 031°13'1212.6
2016-Feb-06 23:33N 39°09' W 031°28'1212.5
2016-Feb-06 22:33N 39°09' W 031°44'  
2016-Jan-31 08:31N 40°28' W 073°52'1111.3
2016-Jan-31 07:34N 40°35' W 074°02'3 3.2
2016-Jan-31 06:32N 40°38' W 074°04'0 0.0
2016-Jan-31 05:32N 40°39' W 074°04'0 0.0
2016-Jan-31 04:32N 40°38' W 074°04'0 0.0
2016-Jan-31 03:32N 40°38' W 074°04'0 0.0
2016-Jan-31 02:32N 40°38' W 074°04'0 0.2
2016-Jan-31 01:32N 40°38' W 074°04'0 0.1
2016-Jan-31 00:32N 40°38' W 074°04'0 0.0
2016-Jan-30 23:32N 40°38' W 074°04'4 3.7
2016-Jan-30 22:33N 40°39' W 074°09'3 0.1
2016-Jan-29 17:32N 40°38' W 074°12'1 0.7
2016-Jan-29 16:33N 40°38' W 074°12'6 6.2
2016-Jan-29 15:33N 40°39' W 074°04'1 0.6
2016-Jan-29 14:31N 40°38' W 074°03'0 0.0
2016-Jan-29 13:31N 40°38' W 074°03'0 0.2
2016-Jan-29 12:31N 40°38' W 074°03'0 0.0
2016-Jan-29 11:31N 40°38' W 074°03'0 0.0
2016-Jan-29 10:31N 40°38' W 074°03'0 0.0
2016-Jan-29 09:31N 40°38' W 074°03'0 0.0
2016-Jan-29 08:31N 40°38' W 074°03'0 0.0
2016-Jan-29 07:31N 40°38' W 074°03'0 0.2
2016-Jan-29 06:31N 40°38' W 074°03'0 0.1
2016-Jan-29 05:31N 40°39' W 074°03'0 0.0
2016-Jan-29 04:31N 40°39' W 074°03'0 0.0
2016-Jan-29 03:31N 40°39' W 074°03'0 0.0
2016-Jan-29 02:31N 40°39' W 074°03'0 0.0
2016-Jan-29 01:31N 40°38' W 074°03'  
Track history (hours):
 
Tides and Currents Weather Stations Pressure Air Temp Water Temp Dewpoint Dewpoint Depression Visibility Wind Speed Wind Dir Waves Ship Positions

Pink Coral

Last reported at 2016-Feb-08 00:32 UTC. Time now 2016-Feb-08 02:03 UTC.
Position N 39°21' W 024°51'.

Length 183 m; draft 8.6 m.

Type: Tanker. MMSI: 249344000.

Date/timePositionNaut miles runAvg speedWind from/ knotsBaromVisibWave heightAir tempDewpointWater temp
2016-Feb-08 00:32N 39°21' W 024°51'3712.2
2016-Feb-07 21:33N 39°21' W 025°38'3712.3
2016-Feb-07 18:33N 39°21' W 026°25'2412.0
2016-Feb-07 16:31N 39°21' W 026°57'1212.3
2016-Feb-07 15:33N 39°21' W 027°13'1212.4
2016-Feb-07 14:34N 39°21' W 027°28'1312.7
2016-Feb-07 13:34N 39°21' W 027°45'1312.8
2016-Feb-07 12:34N 39°21' W 028°01'1312.5
2016-Feb-07 11:33N 39°20' W 028°18'1212.5
2016-Feb-07 10:33N 39°19' W 028°34'1212.1
2016-Feb-07 09:33N 39°18' W 028°49'1212.2
2016-Feb-07 08:34N 39°17' W 029°05'1212.0
2016-Feb-07 07:33N 39°16' W 029°21'1212.1
2016-Feb-07 06:34N 39°15' W 029°36'1212.2
2016-Feb-07 05:33N 39°14' W 029°52'1212.3
2016-Feb-07 04:34N 39°13' W 030°07'1312.6
2016-Feb-07 03:33N 39°12' W 030°24'1212.1
2016-Feb-07 02:33N 39°11' W 030°39'1212.4
2016-Feb-07 01:33N 39°10' W 030°55'1412.9
2016-Feb-07 00:31N 39°08' W 031°13'1212.6
2016-Feb-06 23:33N 39°09' W 031°28'1212.5
2016-Feb-06 22:33N 39°09' W 031°44'  
2016-Jan-31 08:31N 40°28' W 073°52'1111.3
2016-Jan-31 07:34N 40°35' W 074°02'3 3.2
2016-Jan-31 06:32N 40°38' W 074°04'0 0.0
2016-Jan-31 05:32N 40°39' W 074°04'0 0.0
2016-Jan-31 04:32N 40°38' W 074°04'0 0.0
2016-Jan-31 03:32N 40°38' W 074°04'0 0.0
2016-Jan-31 02:32N 40°38' W 074°04'0 0.2
2016-Jan-31 01:32N 40°38' W 074°04'0 0.1
2016-Jan-31 00:32N 40°38' W 074°04'0 0.0
2016-Jan-30 23:32N 40°38' W 074°04'4 3.7
2016-Jan-30 22:33N 40°39' W 074°09'3 0.1
2016-Jan-29 17:32N 40°38' W 074°12'1 0.7
2016-Jan-29 16:33N 40°38' W 074°12'6 6.2
2016-Jan-29 15:33N 40°39' W 074°04'1 0.6
2016-Jan-29 14:31N 40°38' W 074°03'0 0.0
2016-Jan-29 13:31N 40°38' W 074°03'0 0.2
2016-Jan-29 12:31N 40°38' W 074°03'0 0.0
2016-Jan-29 11:31N 40°38' W 074°03'0 0.0
2016-Jan-29 10:31N 40°38' W 074°03'0 0.0
2016-Jan-29 09:31N 40°38' W 074°03'0 0.0
2016-Jan-29 08:31N 40°38' W 074°03'0 0.0
2016-Jan-29 07:31N 40°38' W 074°03'0 0.2
2016-Jan-29 06:31N 40°38' W 074°03'0 0.1
2016-Jan-29 05:31N 40°39' W 074°03'0 0.0
2016-Jan-29 04:31N 40°39' W 074°03'0 0.0
2016-Jan-29 03:31N 40°39' W 074°03'0 0.0
2016-Jan-29 02:31N 40°39' W 074°03'0 0.0
2016-Jan-29 01:31N 40°38' W 074°03'  

Dump ship's entire track history